createdAt,value
2019-01-04T00:02:31.442Z,99.90
2019-01-04T00:05:12.423Z,99.90
2019-01-04T00:07:53.289Z,99.90
2019-01-04T00:10:34.686Z,99.90
2019-01-04T00:13:15.778Z,99.90
2019-01-04T00:15:56.525Z,99.90
2019-01-04T00:18:37.252Z,99.90
2019-01-04T00:21:17.826Z,99.90
2019-01-04T00:23:58.697Z,99.90
2019-01-04T00:26:39.511Z,99.90
2019-01-04T00:29:20.117Z,99.90
2019-01-04T00:32:01.238Z,99.90
2019-01-04T00:34:41.831Z,99.90
2019-01-04T00:37:22.438Z,99.90
2019-01-04T00:40:03.205Z,99.90
2019-01-04T00:42:44.268Z,99.90
2019-01-04T00:45:24.855Z,99.90
2019-01-04T00:48:05.844Z,99.90
2019-01-04T00:50:47.153Z,99.90
2019-01-04T00:53:27.824Z,99.90
2019-01-04T00:56:08.718Z,99.90
2019-01-04T00:58:51.012Z,99.90
2019-01-04T01:01:31.813Z,99.90
2019-01-04T01:04:12.521Z,99.90
2019-01-04T01:06:53.384Z,99.90
2019-01-04T01:09:34.620Z,99.90
2019-01-04T01:12:15.568Z,99.90
2019-01-04T01:14:55.925Z,99.90
2019-01-04T01:17:36.944Z,99.90
2019-01-04T01:20:17.482Z,99.90
2019-01-04T01:22:58.317Z,99.90
2019-01-04T01:25:38.776Z,99.90
2019-01-04T01:28:19.743Z,99.90
2019-01-04T01:31:00.307Z,99.90
2019-01-04T01:33:41.452Z,99.90
2019-01-04T01:36:22.037Z,99.90
2019-01-04T01:39:04.112Z,99.90
2019-01-04T01:41:45.094Z,99.90
2019-01-04T01:44:25.610Z,99.90
2019-01-04T01:47:06.508Z,99.90
2019-01-04T01:49:48.098Z,99.90
2019-01-04T01:52:28.823Z,99.90
2019-01-04T01:55:09.506Z,99.90
2019-01-04T01:57:50.309Z,99.90
2019-01-04T02:00:31.046Z,99.90
2019-01-04T02:03:11.975Z,99.90
2019-01-04T02:05:53.100Z,99.90
2019-01-04T02:08:33.862Z,99.90
2019-01-04T02:11:14.857Z,99.90
2019-01-04T02:13:55.312Z,99.90
2019-01-04T02:16:35.926Z,99.90
2019-01-04T02:19:17.191Z,99.90
2019-01-04T02:21:57.905Z,99.90
2019-01-04T02:24:39.433Z,99.90
2019-01-04T02:27:20.613Z,99.90
2019-01-04T02:30:01.919Z,99.90
2019-01-04T02:32:42.545Z,99.90
2019-01-04T02:35:23.682Z,99.90
2019-01-04T02:38:02.909Z,99.90
2019-01-04T02:40:51.063Z,99.90
2019-01-04T02:43:39.392Z,99.90
2019-01-04T02:46:27.528Z,99.90
2019-01-04T02:49:15.680Z,99.90
2019-01-04T02:52:03.825Z,99.90
2019-01-04T02:55:11.290Z,99.90
2019-01-04T02:57:59.882Z,99.90
2019-01-04T03:00:48.114Z,99.90
2019-01-04T03:03:36.207Z,99.90
2019-01-04T03:06:24.365Z,99.90
2019-01-04T03:09:13.159Z,99.90
2019-01-04T03:12:01.209Z,99.90
2019-01-04T03:14:49.341Z,99.90
2019-01-04T03:17:37.805Z,99.90
2019-01-04T03:20:25.846Z,99.90
2019-01-04T03:23:13.971Z,99.90
2019-01-04T03:26:02.040Z,99.90
2019-01-04T03:28:50.488Z,99.90
2019-01-04T03:31:38.695Z,99.90
2019-01-04T03:34:26.777Z,99.90
2019-01-04T03:37:07.761Z,99.90
2019-01-04T03:39:48.473Z,99.90
2019-01-04T03:42:29.038Z,99.90
2019-01-04T03:45:09.679Z,99.90
2019-01-04T03:47:50.332Z,99.90
2019-01-04T03:50:31.230Z,99.90
2019-01-04T03:53:12.556Z,99.90
2019-01-04T03:55:53.206Z,99.90
2019-01-04T03:58:34.819Z,99.90
2019-01-04T04:01:15.465Z,99.90
2019-01-04T04:03:56.092Z,99.90
2019-01-04T04:06:37.028Z,99.90
2019-01-04T04:09:18.290Z,99.90
2019-01-04T04:11:59.027Z,99.90
2019-01-04T04:14:39.968Z,99.90
2019-01-04T04:17:20.413Z,99.90
2019-01-04T04:20:01.830Z,99.90
2019-01-04T04:22:43.258Z,99.90
2019-01-04T04:25:24.233Z,99.90
2019-01-04T04:28:03.502Z,99.90
2019-01-04T04:30:51.628Z,99.90
2019-01-04T04:33:40.149Z,99.90
2019-01-04T04:36:28.810Z,99.90
2019-01-04T04:39:09.918Z,99.90
2019-01-04T04:41:50.829Z,99.90
2019-01-04T04:44:31.271Z,99.90
2019-01-04T04:47:12.653Z,99.90
2019-01-04T04:49:53.346Z,99.90
2019-01-04T04:52:34.795Z,99.90
2019-01-04T04:55:15.273Z,99.90
2019-01-04T04:57:57.417Z,99.90
2019-01-04T05:00:37.724Z,99.90
2019-01-04T05:03:18.878Z,99.90
2019-01-04T05:05:59.305Z,99.90
2019-01-04T05:08:40.404Z,99.90
2019-01-04T05:11:21.183Z,99.90
2019-01-04T05:14:02.193Z,99.90
2019-01-04T05:16:42.688Z,99.90
2019-01-04T05:19:23.810Z,99.90
2019-01-04T05:22:04.880Z,99.90
2019-01-04T05:24:45.510Z,99.90
2019-01-04T05:27:27.032Z,99.90
2019-01-04T05:30:07.490Z,99.90
2019-01-04T05:32:48.218Z,99.90
2019-01-04T05:35:28.815Z,99.90
2019-01-04T05:38:09.467Z,99.90
2019-01-04T05:40:50.220Z,99.90
2019-01-04T05:43:30.580Z,99.90
2019-01-04T05:46:11.402Z,99.90
2019-01-04T05:48:52.428Z,99.90
2019-01-04T05:51:33.213Z,99.90
2019-01-04T05:54:14.704Z,99.90
2019-01-04T05:56:55.287Z,99.90
2019-01-04T05:59:36.393Z,99.90
2019-01-04T06:02:17.209Z,99.90
2019-01-04T06:04:58.667Z,99.90
2019-01-04T06:07:39.657Z,99.90
2019-01-04T06:10:20.559Z,99.90
2019-01-04T06:13:01.285Z,99.90
2019-01-04T06:15:41.694Z,99.90
2019-01-04T06:18:22.609Z,99.90
2019-01-04T06:21:03.932Z,99.90
2019-01-04T06:23:44.672Z,99.90
2019-01-04T06:26:25.417Z,99.90
2019-01-04T06:29:06.159Z,99.90
2019-01-04T06:31:47.078Z,99.90
2019-01-04T06:34:28.113Z,99.90
2019-01-04T06:37:08.784Z,99.90
2019-01-04T06:39:49.352Z,99.90
2019-01-04T06:42:30.018Z,99.90
2019-01-04T06:45:10.908Z,99.90
2019-01-04T06:47:52.232Z,99.90
2019-01-04T06:50:32.709Z,99.90
2019-01-04T06:53:13.508Z,99.90
2019-01-04T06:55:55.614Z,99.90
2019-01-04T06:58:36.859Z,99.90
2019-01-04T07:01:17.485Z,99.90
2019-01-04T07:03:58.260Z,99.90
2019-01-04T07:06:38.815Z,99.90
2019-01-04T07:09:19.854Z,99.90
2019-01-04T07:12:00.505Z,99.90
2019-01-04T07:14:41.167Z,99.90
2019-01-04T07:17:22.249Z,99.90
2019-01-04T07:20:03.017Z,99.90
2019-01-04T07:22:43.753Z,99.90
2019-01-04T07:25:24.462Z,99.90
2019-01-04T07:28:05.263Z,99.90
2019-01-04T07:30:46.101Z,99.90
2019-01-04T07:33:27.063Z,99.90
2019-01-04T07:36:07.749Z,99.90
2019-01-04T07:38:48.609Z,99.90
2019-01-04T07:41:29.500Z,99.90
2019-01-04T07:44:10.118Z,99.90
2019-01-04T07:46:51.246Z,99.90
2019-01-04T07:49:32.082Z,99.90
2019-01-04T07:52:12.993Z,99.90
2019-01-04T07:54:53.419Z,99.90
2019-01-04T07:57:33.763Z,99.90
2019-01-04T08:00:14.310Z,99.90
2019-01-04T08:02:54.963Z,99.90
2019-01-04T08:05:36.151Z,99.90
2019-01-04T08:08:16.970Z,99.90
2019-01-04T08:10:58.338Z,99.90
2019-01-04T08:13:38.996Z,99.90
2019-01-04T08:16:19.436Z,99.90
2019-01-04T08:19:00.068Z,99.90
2019-01-04T08:21:40.856Z,99.90
2019-01-04T08:24:21.519Z,99.90
2019-01-04T08:27:04.092Z,99.90
2019-01-04T08:29:45.056Z,99.90
2019-01-04T08:32:25.472Z,99.90
2019-01-04T08:35:06.552Z,99.90
2019-01-04T08:37:47.371Z,99.90
2019-01-04T08:40:28.340Z,99.90
2019-01-04T08:43:09.000Z,99.90
2019-01-04T08:45:49.336Z,99.90
2019-01-04T08:48:30.105Z,99.90
2019-01-04T08:51:11.105Z,99.90
2019-01-04T08:53:52.483Z,99.90
2019-01-04T08:56:33.588Z,99.90
2019-01-04T08:59:14.227Z,99.90
2019-01-04T09:01:54.886Z,99.90
2019-01-04T09:04:35.865Z,99.90
2019-01-04T09:07:16.737Z,99.50
2019-01-04T09:09:57.662Z,99.60
2019-01-04T09:12:38.687Z,99.80
2019-01-04T09:15:19.412Z,99.60
2019-01-04T09:20:49.448Z,99.30
2019-01-04T09:23:31.030Z,99.50
2019-01-04T09:29:10.368Z,99.90
2019-01-04T09:31:50.854Z,99.90
2019-01-04T09:34:31.742Z,99.90
2019-01-04T09:37:12.440Z,99.90
2019-01-04T09:39:53.911Z,99.90
2019-01-04T09:42:34.425Z,99.90
2019-01-04T09:45:14.882Z,99.90
2019-01-04T09:47:55.874Z,99.90
2019-01-04T09:50:39.595Z,99.90
2019-01-04T09:53:21.001Z,99.90
2019-01-04T09:56:01.731Z,99.90
2019-01-04T09:58:43.012Z,99.90
2019-01-04T10:01:23.582Z,99.90
2019-01-04T10:03:52.857Z,99.90
2019-01-04T10:06:21.913Z,99.90
2019-01-04T10:08:50.972Z,99.90
2019-01-04T10:11:19.948Z,99.90
2019-01-04T10:13:49.080Z,99.90
2019-01-04T10:16:18.432Z,99.90
2019-01-04T10:18:47.730Z,99.90
2019-01-04T10:21:16.721Z,99.90
2019-01-04T10:23:46.105Z,99.90
2019-01-04T10:26:15.244Z,99.70
2019-01-04T10:28:47.200Z,99.50
2019-01-04T10:31:16.209Z,99.40
2019-01-04T10:33:45.436Z,99.50
2019-01-04T10:36:14.658Z,99.80
2019-01-04T10:38:43.702Z,99.80
2019-01-04T10:41:13.027Z,99.90
2019-01-04T10:43:42.879Z,99.90
2019-01-04T10:46:12.052Z,99.90
2019-01-04T10:48:41.934Z,99.90
2019-01-04T10:51:10.981Z,99.90
2019-01-04T10:53:39.889Z,99.90
2019-01-04T10:56:09.089Z,99.90
2019-01-04T10:58:38.323Z,99.80
2019-01-04T11:01:07.435Z,99.90
2019-01-04T11:03:36.521Z,99.90
2019-01-04T11:06:05.600Z,99.90
2019-01-04T11:08:34.704Z,99.90
2019-01-04T11:11:04.316Z,99.90
2019-01-04T11:13:33.264Z,99.90
2019-01-04T11:16:02.227Z,99.90
2019-01-04T11:18:31.242Z,99.90
2019-01-04T11:21:02.901Z,99.90
2019-01-04T11:24:28.161Z,99.90
2019-01-04T11:27:06.107Z,99.90
2019-01-04T11:30:17.553Z,99.90
2019-01-04T11:33:30.825Z,99.90
2019-01-04T11:36:23.022Z,99.60
2019-01-04T11:39:28.257Z,99.60
2019-01-04T11:42:23.624Z,99.60
2019-01-04T11:45:17.992Z,99.90
2019-01-04T11:48:11.764Z,99.00
2019-01-04T11:51:18.415Z,99.30
2019-01-04T11:53:47.388Z,99.40
2019-01-04T11:56:16.646Z,98.70
2019-01-04T11:58:45.638Z,98.90
2019-01-04T12:01:14.655Z,98.80
2019-01-04T12:04:00.124Z,98.70
2019-01-04T12:06:29.225Z,98.60
2019-01-04T12:08:58.192Z,98.80
2019-01-04T12:11:27.241Z,98.90
2019-01-04T12:13:56.477Z,98.80
2019-01-04T12:16:25.882Z,98.70
2019-01-04T12:18:54.889Z,98.60
2019-01-04T12:21:23.817Z,98.60
2019-01-04T12:23:53.052Z,98.60
2019-01-04T12:26:22.588Z,98.60
2019-01-04T12:28:52.101Z,98.50
2019-01-04T12:31:21.063Z,98.90
2019-01-04T12:33:50.400Z,98.60
2019-01-04T12:36:19.741Z,98.50
2019-01-04T12:38:48.806Z,98.30
2019-01-04T12:41:17.807Z,98.20
2019-01-04T12:43:47.950Z,98.00
2019-01-04T12:46:17.257Z,98.20
2019-01-04T12:48:46.302Z,98.50
2019-01-04T12:51:15.295Z,98.50
2019-01-04T12:53:44.544Z,98.70
2019-01-04T12:56:13.556Z,98.80
2019-01-04T12:58:42.725Z,98.70
2019-01-04T13:01:11.942Z,98.80
2019-01-04T13:03:41.139Z,98.90
2019-01-04T13:06:10.448Z,98.90
2019-01-04T13:08:39.420Z,98.70
2019-01-04T13:11:08.591Z,98.70
2019-01-04T13:13:37.579Z,98.40
2019-01-04T13:16:06.629Z,98.40
2019-01-04T13:18:35.593Z,98.50
2019-01-04T13:21:04.697Z,98.60
2019-01-04T13:23:33.799Z,98.30
2019-01-04T13:26:02.849Z,98.40
2019-01-04T13:28:31.751Z,98.20
2019-01-04T13:31:01.115Z,98.30
2019-01-04T13:33:30.149Z,98.20
2019-01-04T13:35:59.245Z,98.30
2019-01-04T13:38:29.328Z,98.30
2019-01-04T13:40:58.938Z,97.90
2019-01-04T13:43:28.422Z,98.10
2019-01-04T13:45:57.363Z,98.30
2019-01-04T13:48:26.315Z,98.30
2019-01-04T13:50:55.807Z,98.90
2019-01-04T13:53:25.095Z,99.40
2019-01-04T13:55:54.198Z,99.90
2019-01-04T13:58:23.358Z,99.90
2019-01-04T14:00:52.389Z,99.90
2019-01-04T14:03:21.547Z,99.90
2019-01-04T14:05:50.562Z,99.90
2019-01-04T14:08:19.965Z,99.90
2019-01-04T14:10:48.952Z,99.90
2019-01-04T14:13:17.965Z,99.90
2019-01-04T14:15:46.985Z,99.90
2019-01-04T14:18:16.018Z,99.90
2019-01-04T14:20:45.396Z,99.90
2019-01-04T14:23:14.379Z,99.90
2019-01-04T14:25:43.962Z,99.90
2019-01-04T14:28:13.441Z,99.90
2019-01-04T14:30:49.799Z,99.90
2019-01-04T14:33:19.004Z,99.90
2019-01-04T14:35:48.050Z,99.90
2019-01-04T14:38:17.056Z,99.90
2019-01-04T14:40:46.479Z,99.90
2019-01-04T14:43:15.989Z,99.90
2019-01-04T14:45:45.597Z,99.90
2019-01-04T14:48:14.569Z,99.90
2019-01-04T14:50:43.612Z,99.90
2019-01-04T14:53:12.629Z,99.90
2019-01-04T14:55:41.871Z,99.90
2019-01-04T14:58:10.795Z,99.90
2019-01-04T15:00:40.135Z,99.90
2019-01-04T15:03:09.422Z,99.90
2019-01-04T15:05:38.581Z,99.90
2019-01-04T15:08:07.696Z,99.90
2019-01-04T15:10:37.691Z,99.90
2019-01-04T15:13:07.133Z,99.90
2019-01-04T15:15:36.679Z,99.90
2019-01-04T15:18:05.634Z,99.90
2019-01-04T15:20:34.984Z,99.90
2019-01-04T15:23:04.274Z,99.90
2019-01-04T15:25:33.495Z,99.90
2019-01-04T15:28:03.073Z,99.90
2019-01-04T15:30:32.137Z,99.90
2019-01-04T15:33:01.584Z,99.90
2019-01-04T15:35:30.480Z,99.90
2019-01-04T15:38:00.063Z,99.90
2019-01-04T15:40:29.192Z,99.90
2019-01-04T15:42:58.461Z,99.90
2019-01-04T15:45:27.473Z,99.90
2019-01-04T15:47:56.654Z,99.90
2019-01-04T15:50:25.599Z,99.90
2019-01-04T15:52:54.857Z,99.90
2019-01-04T15:55:30.993Z,99.90
2019-01-04T15:58:05.310Z,99.90
2019-01-04T16:00:34.507Z,99.90
2019-01-04T16:03:04.330Z,99.90
2019-01-04T16:05:33.545Z,99.90
2019-01-04T16:08:02.626Z,99.90
2019-01-04T16:10:32.079Z,99.90
2019-01-04T16:13:01.186Z,99.90
2019-01-04T16:15:30.234Z,99.90
2019-01-04T16:17:59.946Z,99.90
2019-01-04T16:20:29.663Z,99.90
2019-01-04T16:22:59.291Z,99.90
2019-01-04T16:25:28.375Z,99.90
2019-01-04T16:27:57.376Z,99.90
2019-01-04T16:30:26.629Z,99.90
2019-01-04T16:32:55.865Z,99.90
2019-01-04T16:35:25.175Z,99.90
2019-01-04T16:37:54.074Z,99.90
2019-01-04T16:40:25.028Z,99.90
2019-01-04T16:42:56.190Z,99.90
2019-01-04T16:45:25.422Z,99.90
2019-01-04T16:47:56.154Z,99.90
2019-01-04T16:50:25.117Z,99.90
2019-01-04T16:52:59.447Z,99.90
2019-01-04T16:55:25.610Z,99.90
2019-01-04T16:57:54.921Z,99.90
2019-01-04T17:00:24.339Z,99.90
2019-01-04T17:02:53.635Z,99.90
2019-01-04T17:05:22.821Z,99.90
2019-01-04T17:07:52.265Z,99.90
2019-01-04T17:10:21.911Z,99.90
2019-01-04T17:12:50.938Z,99.90
2019-01-04T17:15:20.005Z,99.90
2019-01-04T17:17:50.473Z,99.90
2019-01-04T17:20:19.795Z,99.90
2019-01-04T17:22:49.290Z,99.90
2019-01-04T17:25:18.338Z,99.90
2019-01-04T17:28:05.750Z,99.90
2019-01-04T17:30:34.779Z,99.90
2019-01-04T17:33:04.282Z,99.90
2019-01-04T17:35:33.304Z,99.90
2019-01-04T17:38:02.781Z,99.90
2019-01-04T17:40:31.897Z,99.90
2019-01-04T17:43:01.229Z,99.90
2019-01-04T17:45:30.343Z,99.90
2019-01-04T17:47:59.450Z,99.90
2019-01-04T17:50:28.858Z,99.90
2019-01-04T17:52:58.029Z,99.90
2019-01-04T17:55:27.161Z,99.90
2019-01-04T17:57:56.351Z,99.90
2019-01-04T18:00:25.581Z,99.90
2019-01-04T18:03:00.671Z,99.90
2019-01-04T18:05:25.340Z,99.90
2019-01-04T18:07:54.343Z,99.90
2019-01-04T18:10:27.626Z,99.90
2019-01-04T18:12:57.289Z,99.90
2019-01-04T18:15:26.549Z,99.90
2019-01-04T18:17:58.631Z,99.90
2019-01-04T18:20:26.962Z,99.90
2019-01-04T18:22:56.761Z,99.90
2019-01-04T18:25:25.891Z,99.90
2019-01-04T18:27:54.929Z,99.90
2019-01-04T18:30:24.243Z,99.90
2019-01-04T18:32:53.948Z,99.90
2019-01-04T18:35:26.039Z,99.90
2019-01-04T18:37:55.647Z,99.90
2019-01-04T18:40:25.268Z,99.90
2019-01-04T18:42:54.376Z,99.90
2019-01-04T18:45:23.553Z,99.90
2019-01-04T18:47:52.516Z,99.90
2019-01-04T18:50:23.355Z,99.90
2019-01-04T18:52:52.745Z,99.90
2019-01-04T18:55:21.916Z,99.90
2019-01-04T18:57:51.292Z,99.90
2019-01-04T19:00:21.243Z,99.90
2019-01-04T19:02:50.826Z,99.90
2019-01-04T19:05:22.002Z,99.90
2019-01-04T19:07:51.250Z,99.90
2019-01-04T19:10:20.328Z,99.90
2019-01-04T19:12:49.765Z,99.90
2019-01-04T19:15:19.062Z,99.90
2019-01-04T19:17:48.299Z,99.90
2019-01-04T19:20:17.551Z,99.90
2019-01-04T19:22:46.873Z,99.90
2019-01-04T19:25:16.177Z,99.90
2019-01-04T19:27:48.769Z,99.90
2019-01-04T19:30:18.108Z,99.90
2019-01-04T19:32:49.214Z,99.90
2019-01-04T19:35:21.536Z,99.90
2019-01-04T19:37:55.556Z,99.90
2019-01-04T19:40:25.845Z,99.90
2019-01-04T19:42:57.313Z,99.90
2019-01-04T19:45:28.172Z,99.90
2019-01-04T19:47:57.326Z,99.90
2019-01-04T19:50:29.025Z,99.90
2019-01-04T19:53:00.904Z,99.90
2019-01-04T19:55:30.770Z,99.90
2019-01-04T19:58:05.299Z,99.90
2019-01-04T20:00:35.203Z,99.90
2019-01-04T20:03:06.604Z,99.90
2019-01-04T20:06:28.377Z,99.90
2019-01-04T20:09:38.235Z,99.90
2019-01-04T20:13:30.313Z,99.90
2019-01-04T20:16:44.109Z,99.90
2019-01-04T20:19:34.469Z,99.90
2019-01-04T20:22:32.409Z,99.90
2019-01-04T20:25:25.964Z,99.90
2019-01-04T20:28:13.621Z,99.90
2019-01-04T20:31:11.465Z,99.90
2019-01-04T20:34:02.877Z,99.90
2019-01-04T20:36:48.610Z,99.90
2019-01-04T20:39:38.584Z,99.90
2019-01-04T20:42:26.530Z,99.90
2019-01-04T20:45:25.076Z,99.90
2019-01-04T20:48:26.929Z,99.90
2019-01-04T20:51:17.787Z,99.90
2019-01-04T20:54:03.603Z,99.90
2019-01-04T20:57:08.447Z,99.90
2019-01-04T20:59:57.117Z,99.90
2019-01-04T21:02:54.135Z,99.90
2019-01-04T21:05:51.725Z,99.90
2019-01-04T21:08:41.460Z,99.90
2019-01-04T21:11:41.373Z,99.90
2019-01-04T21:14:30.913Z,99.90
2019-01-04T21:17:31.200Z,99.90
2019-01-04T21:20:22.954Z,99.90
2019-01-04T21:23:20.891Z,99.90
2019-01-04T21:26:18.956Z,99.90
2019-01-04T21:29:05.820Z,99.90
2019-01-04T21:32:09.144Z,99.90
2019-01-04T21:34:57.303Z,99.90
2019-01-04T21:37:44.624Z,99.90
2019-01-04T21:40:32.883Z,99.90
2019-01-04T21:43:19.603Z,99.90
2019-01-04T21:46:23.515Z,99.90
2019-01-04T21:49:26.797Z,99.90
2019-01-04T21:52:13.790Z,99.90
2019-01-04T21:55:00.904Z,99.90
2019-01-04T21:57:48.426Z,99.90
2019-01-04T22:00:37.319Z,99.90
2019-01-04T22:03:35.525Z,99.90
2019-01-04T22:06:33.748Z,99.90
2019-01-04T22:09:42.051Z,99.90
2019-01-04T22:12:35.587Z,99.90
2019-01-04T22:15:22.656Z,99.90
2019-01-04T22:18:20.113Z,99.90
2019-01-04T22:21:06.115Z,99.90
2019-01-04T22:23:52.787Z,99.90
2019-01-04T22:26:43.826Z,99.90
2019-01-04T22:29:21.018Z,99.90
2019-01-04T22:32:15.302Z,99.90
2019-01-04T22:35:12.773Z,99.90
2019-01-04T22:37:59.821Z,99.90
2019-01-04T22:40:53.254Z,99.90
2019-01-04T22:43:44.560Z,99.90
2019-01-04T22:46:38.857Z,99.90
2019-01-04T22:49:18.537Z,99.90
2019-01-04T22:52:24.573Z,99.90
2019-01-04T22:55:27.838Z,99.90
2019-01-04T22:58:18.460Z,99.90
2019-01-04T23:01:13.134Z,99.90
2019-01-04T23:04:00.158Z,99.90
2019-01-04T23:06:52.380Z,99.90
2019-01-04T23:09:43.367Z,99.90
2019-01-04T23:12:29.757Z,99.90
2019-01-04T23:15:27.117Z,99.90
2019-01-04T23:18:13.551Z,99.90
2019-01-04T23:20:54.343Z,99.90
2019-01-04T23:23:38.220Z,99.90
2019-01-04T23:26:37.738Z,99.90
2019-01-04T23:29:25.921Z,99.90
2019-01-04T23:32:11.958Z,99.90
2019-01-04T23:35:01.814Z,99.90
2019-01-04T23:37:59.915Z,99.90
2019-01-04T23:40:57.156Z,99.90
2019-01-04T23:43:41.108Z,99.90
2019-01-04T23:46:27.855Z,99.90
2019-01-04T23:49:28.011Z,99.90
2019-01-04T23:52:15.685Z,99.90
2019-01-04T23:54:58.820Z,99.90
2019-01-04T23:57:52.873Z,99.90
